In Rescue
 
Open Full Screen Window  High Contrast Mode
Wind Gusting 00 knots
10
March 19, 2019 6:31 PM CDT
Weather Information
Wind Direction
  230 °
Wind Speed
  10 kt (12 mph)
Wind Gust
  00 kt (0 mph)
Altimeter
30.01 in
Visibility
10 SM
Temperature
02° C
36° F
Dewpoint
-01° C
30° F
Humidity
81%
1hr Rain Fall
00.00 in.
24hr Rain Fall
00.00 in.
Sky Condition
Scattered @ 12,000 ft
VFR

METAR KVWU 192331Z AUTO 23010KT 10SM SCT120 02/M01 A3001 RMK AO2

FAA Disclaimer: The data displayed is for advisory purposes only and is not to be used for flight planning or operations.